• Join FlightAware (Why Join?)
  • Login
  • US Flag 
10:04AM EDT


 

Airport Tracker/Info


-or-


 

Live Flight TrackerFlight Track Log ✈ ASQ5941 ✈ 12-Jul-2013 ✈ KAVP - KORD

Flight Track Log - Related Links

Times and Time Zones

All times are in EDT time to prevent confusion due to time zone crossing. See the ASQ5941 flight status page for this flight to view local times or setup timezone preferences in your user account.

Time Position Orientation Groundspeed Altitude Reporting Facility
EDT Latitude Longitude Course Direction KTS MPH feet Rate Location/Type
05:49PM 41.4933 -75.6675 340° North 255 293 8,100  Level New York Center
05:50PM 41.4443 -75.9720 304° West  Level FlightAware Approximate
05:50PM 41.5467 -75.7408 314° West 274 315 9,900  Level New York Center
05:51PM 41.5013 -76.0629 315° West  Level FlightAware Approximate
05:51PM 41.5814 -75.8542 292° West 304 350 10,700  Level New York Center
05:52PM 41.5616 -76.1508 312° West  Level FlightAware Approximate
05:52PM 41.6158 -75.9733 291° West 332 382 12,500  Level New York Center
05:53PM 41.6177 -76.2435 307° West  Level FlightAware Approximate
05:53PM 41.6442 -76.0811 289° West 347 399 14,200  Level New York Center
05:54PM 41.6839 -76.2203 291° West 354 407 16,200 1,740 Climbing New York Center
05:55PM 41.7178 -76.3425 290° West 354 407 17,800 1,560 Climbing New York Center
05:56PM 41.7500 -76.4539 291° West 354 407 19,400 1,740 Climbing New York Center
05:57PM 41.7836 -76.5733 291° West 354 407 21,400 1,980 Climbing New York Center
05:58PM 41.8189 -76.7019 290° West 348 400 23,400 1,980 Climbing New York Center
05:59PM 41.8508 -76.8133 291° West 334 384 25,400 1,560 Climbing New York Center
06:00PM 41.8806 -76.9247 290° West 324 373 26,600 960 Climbing New York Center
06:01PM 41.9117 -77.0419 290° West 327 376 27,300 780 Climbing Cleveland Center
06:02PM 41.9422 -77.1519 291° West 332 382 28,200 900 Climbing Cleveland Center
06:03PM 41.9772 -77.2814 290° West 351 404 29,100 840 Climbing Cleveland Center
06:04PM 42.0122 -77.4167 289° West 371 427 29,900 840 Climbing Cleveland Center
06:05PM 42.0494 -77.5547 290° West 383 441 30,800 720 Climbing Cleveland Center
06:06PM 42.0864 -77.6928 290° West 388 447 31,400 540 Climbing Cleveland Center
06:07PM 42.1253 -77.8394 290° West 405 466 31,900 300 Climbing Cleveland Center
06:08PM 42.1642 -77.9919 289° West 419 482 32,000  Climbing Cleveland Center
06:09PM 42.2050 -78.1417 290° West 424 488 32,000  Level Cleveland Center
06:10PM 42.2436 -78.2917 289° West 424 488 32,000  Level Cleveland Center
06:11PM 42.2797 -78.4392 288° West 418 481 32,000  Level Cleveland Center
06:12PM 42.3181 -78.5894 289° West 418 481 32,000  Level Cleveland Center
06:13PM 42.3578 -78.7372 290° West 418 481 32,000  Level Cleveland Center
06:14PM 42.3956 -78.8850 289° West 418 481 32,000  Level Cleveland Center
06:15PM 42.4375 -79.0556 288° West 423 487 32,000  Level Cleveland Center
06:16PM 42.4706 -79.1897 289° West 428 493 32,000  Level Cleveland Center
06:17PM 42.4953 -79.3414 283° West 420 483 32,000  Level Cleveland Center
06:18PM 42.5008 -79.4819 273° West 400 460 32,000  Level Cleveland Center
06:19PM 42.5103 -79.6172 275° West 379 436 32,000  Level Cleveland Center
06:20PM 42.5156 -79.7522 273° West 367 422 32,000  Level Cleveland Center
06:21PM 42.5228 -79.8958 274° West 367 422 32,000  Level Cleveland Center
06:22PM 42.5256 -80.0478 271° West 384 442 32,000  Level Cleveland Center
06:23PM 42.5347 -80.2083 274° West 420 483 32,000  Level Cleveland Center
06:24PM 42.5414 -80.3858 273° West 427 491 32,000  Level Cleveland Center
06:25PM 42.5456 -80.5494 272° West 433 498 32,000  Level Cleveland Center
06:26PM 42.5539 -80.7128 274° West 441 507 32,000  Level Cleveland Center
06:27PM 42.5597 -80.8847 273° West 441 507 32,000  Level Cleveland Center
06:28PM 42.5656 -81.0483 273° West 441 507 32,000  Level Cleveland Center
06:29PM 42.5731 -81.2203 273° West 448 516 32,000  Level Cleveland Center
06:30PM 42.5783 -81.3867 273° West 454 522 32,000  Level Cleveland Center
06:31PM 42.6000 -81.5564 280° West 454 522 32,000  Level Cleveland Center
06:32PM 42.6297 -81.7147 284° West 447 514 32,000  Level Cleveland Center
06:33PM 42.6572 -81.8789 283° West 447 514 32,000  Level Cleveland Center
06:34PM 42.6864 -82.0464 283° West 452 520 32,000  Level Cleveland Center
06:35PM 42.7133 -82.2136 282° West 452 520 32,000  Level Cleveland Center
06:36PM 42.7422 -82.3783 283° West 452 520 32,000  Level Cleveland Center
06:37PM 42.7728 -82.5433 284° West 452 520 32,000  Level Cleveland Center
06:38PM 42.7989 -82.7111 282° West 452 520 32,000  Level Cleveland Center
06:39PM 42.8356 -82.8681 288° West 444 511 32,000  Level Cleveland Center
06:40PM 42.9081 -82.9925 309° West 421 484 32,000  Level Cleveland Center
06:41PM 42.9633 -83.1367 298° West 421 484 32,000  Level Cleveland Center
06:42PM 42.9656 -83.3125 271° West 438 504 32,000  Level Cleveland Center
06:43PM 42.9675 -83.4944 271° West 463 533 32,000  Level Cleveland Center
06:44PM 42.9667 -83.6789 270° West 478 550 32,000  Level Cleveland Center
06:45PM 42.9533 -83.8625 264° West 484 557 32,000  Level Cleveland Center
06:46PM 42.9375 -84.0517 264° West 492 566 32,000  Level Cleveland Center
06:46PM 42.9292 -84.1258 261° West 499 574 32,000  Level Chicago Center
06:47PM 42.9119 -84.3114 263° West 496 571 32,000  Level Chicago Center
06:48PM 42.8922 -84.4983 262° West 498 573 32,000  Level Chicago Center
06:50PM 42.8728 -84.6819 262° West 494 568 32,000  Level Chicago Center
06:51PM 42.8503 -84.9042 262° West 494 568 32,000  Level Chicago Center
06:52PM 42.8311 -85.0889 262° West 493 567 32,000 -660 Level Chicago Center
06:53PM 42.8117 -85.2689 262° West 486 559 30,700 -1,440 Descending Chicago Center
06:54PM 42.7919 -85.4428 261° West 468 539 29,100 -1,500 Descending Chicago Center
06:55PM 42.7647 -85.6156 258° West 466 536 27,600 -1,440 Descending Chicago Center
06:56PM 42.7336 -85.7939 257° West 477 549 26,200 -1,440 Descending Chicago Center
06:57PM 42.7011 -85.9692 256° West 476 548 24,700 -1,680 Descending Chicago Center
06:58PM 42.6644 -86.1719 256° West 462 532 22,800 -1,680 Descending Chicago Center
06:59PM 42.6339 -86.3322 256° West 443 510 21,300 -1,860 Descending Chicago Center
07:00PM 42.6044 -86.4878 256° West 427 491 19,000 -2,280 Descending Chicago Center
07:01PM 42.5772 -86.6372 256° West 410 472 16,700 -2,340 Descending Chicago Center
07:02PM 42.5467 -86.7783 254° West 393 452 14,200 -2,460 Descending Chicago Center
07:03PM 42.5094 -86.9108 249° West 381 438 11,700 -2,040 Descending Chicago Center
07:04PM 42.4681 -87.0578 249° West 352 405 10,100 -1,200 Descending Chicago Center
07:05PM 42.4406 -87.1628 250° West 305 351 9,200 -540 Descending Chicago Center
07:06PM 42.4119 -87.2642 249° West 292 336 9,000 -120 Descending Chicago Center
07:07PM 42.3833 -87.3739 251° West 304 350 9,000 -360 Level Chicago Center
07:08PM 42.3525 -87.4692 246° West 288 331 8,300 -960 Descending Chicago Center
07:09PM 42.2942 -87.5678 231° Southwest 281 323 7,100 -840 Descending Chicago Center
07:10PM 42.2350 -87.6322 219° Southwest 275 316 6,600 -900 Descending Chicago Center
07:11PM 42.1792 -87.6947 220° Southwest 265 305 5,300 -1,260 Descending Chicago Center
07:12PM 42.1258 -87.7561 220° Southwest 256 295 4,000 -1,260 Descending Chicago Center